createdAt,value
2017-09-07T00:00:39.456Z,14.43
2017-09-07T00:01:39.448Z,14.39
2017-09-07T00:02:39.462Z,14.37
2017-09-07T00:03:39.449Z,14.39
2017-09-07T00:04:39.419Z,14.33
2017-09-07T00:05:39.403Z,14.39
2017-09-07T00:06:39.393Z,14.37
2017-09-07T00:07:39.418Z,14.52
2017-09-07T00:08:39.369Z,14.42
2017-09-07T00:09:39.365Z,14.39
2017-09-07T00:10:39.362Z,14.35
2017-09-07T00:11:39.342Z,14.40
2017-09-07T00:12:39.356Z,14.32
2017-09-07T00:13:39.324Z,14.32
2017-09-07T00:14:39.306Z,14.33
2017-09-07T00:15:39.298Z,14.28
2017-09-07T00:16:39.282Z,14.25
2017-09-07T00:17:39.620Z,14.28
2017-09-07T00:18:39.269Z,14.25
2017-09-07T00:19:39.258Z,14.25
2017-09-07T00:20:39.243Z,14.20
2017-09-07T00:21:39.233Z,14.22
2017-09-07T00:22:39.234Z,14.20
2017-09-07T00:23:39.552Z,14.22
2017-09-07T00:24:39.211Z,14.17
2017-09-07T00:25:39.188Z,14.22
2017-09-07T00:26:39.182Z,14.20
2017-09-07T00:27:39.171Z,14.17
2017-09-07T00:28:39.160Z,14.24
2017-09-07T00:29:39.574Z,14.18
2017-09-07T00:30:39.142Z,14.18
2017-09-07T00:31:39.124Z,14.24
2017-09-07T00:32:39.121Z,14.21
2017-09-07T00:33:39.115Z,14.21
2017-09-07T00:34:39.094Z,14.21
2017-09-07T00:35:39.373Z,14.21
2017-09-07T00:36:39.074Z,14.32
2017-09-07T00:37:39.057Z,14.32
2017-09-07T00:38:39.049Z,14.22
2017-09-07T00:39:39.043Z,14.27
2017-09-07T00:40:39.036Z,14.28
2017-09-07T00:41:39.045Z,14.33
2017-09-07T00:42:39.453Z,14.35
2017-09-07T00:43:38.995Z,14.21
2017-09-07T00:44:38.980Z,14.18
2017-09-07T00:45:38.981Z,14.21
2017-09-07T00:46:38.960Z,14.28
2017-09-07T00:47:38.940Z,14.22
2017-09-07T00:48:39.374Z,14.21
2017-09-07T00:49:38.947Z,14.20
2017-09-07T00:50:38.911Z,14.20
2017-09-07T00:51:38.912Z,14.24
2017-09-07T00:52:38.897Z,14.12
2017-09-07T00:53:38.890Z,14.24
2017-09-07T00:54:39.387Z,14.20
2017-09-07T00:55:38.856Z,14.17
2017-09-07T00:56:38.861Z,14.21
2017-09-07T00:57:38.851Z,14.15
2017-09-07T00:58:38.827Z,14.15
2017-09-07T00:59:38.822Z,14.27
2017-09-07T01:00:39.156Z,14.24
2017-09-07T01:01:38.812Z,14.24
2017-09-07T01:02:38.779Z,14.33
2017-09-07T01:03:38.793Z,14.22
2017-09-07T01:04:38.764Z,14.22
2017-09-07T01:05:38.759Z,14.24
2017-09-07T01:06:39.159Z,14.28
2017-09-07T01:07:38.750Z,14.33
2017-09-07T01:08:38.717Z,14.25
2017-09-07T01:09:38.705Z,14.24
2017-09-07T01:10:38.699Z,14.27
2017-09-07T01:11:38.696Z,14.35
2017-09-07T01:12:39.123Z,14.33
2017-09-07T01:13:38.675Z,14.25
2017-09-07T01:14:38.652Z,14.27
2017-09-07T01:15:38.643Z,14.21
2017-09-07T01:16:38.626Z,14.21
2017-09-07T01:17:38.619Z,14.18
2017-09-07T01:18:39.014Z,14.27
2017-09-07T01:19:38.610Z,14.24
2017-09-07T01:20:38.593Z,14.29
2017-09-07T01:21:38.587Z,14.28
2017-09-07T01:22:38.565Z,14.25
2017-09-07T01:23:38.554Z,14.27
2017-09-07T01:24:38.956Z,14.22
2017-09-07T01:25:38.538Z,14.15
2017-09-07T01:26:38.521Z,14.20
2017-09-07T01:27:38.505Z,14.15
2017-09-07T01:28:38.511Z,14.17
2017-09-07T01:29:38.500Z,14.18
2017-09-07T01:30:38.810Z,14.12
2017-09-07T01:31:38.478Z,14.06
2017-09-07T01:32:38.473Z,14.12
2017-09-07T01:33:38.456Z,14.15
2017-09-07T01:34:38.443Z,14.07
2017-09-07T01:35:38.417Z,14.07
2017-09-07T01:36:38.714Z,14.07
2017-09-07T01:37:38.413Z,14.00
2017-09-07T01:38:38.407Z,14.07
2017-09-07T01:39:38.381Z,14.07
2017-09-07T01:40:38.375Z,14.04
2017-09-07T01:41:38.356Z,14.10
2017-09-07T01:42:38.382Z,14.04
2017-09-07T01:43:38.334Z,14.10
2017-09-07T01:44:38.335Z,14.15
2017-09-07T01:45:38.626Z,14.17
2017-09-07T01:46:38.320Z,14.17
2017-09-07T01:47:38.291Z,14.15
2017-09-07T01:48:38.286Z,14.15
2017-09-07T01:49:38.281Z,14.18
2017-09-07T01:50:38.259Z,14.20
2017-09-07T01:51:38.669Z,14.15
2017-09-07T01:52:38.248Z,14.10
2017-09-07T01:53:38.224Z,14.20
2017-09-07T01:54:38.224Z,14.18
2017-09-07T01:55:38.202Z,14.15
2017-09-07T01:56:38.190Z,14.14
2017-09-07T01:57:38.424Z,14.17
2017-09-07T01:58:38.167Z,14.07
2017-09-07T01:59:38.161Z,14.06
2017-09-07T02:00:38.146Z,14.07
2017-09-07T02:01:38.157Z,14.07
2017-09-07T02:02:38.125Z,14.03
2017-09-07T02:03:38.158Z,14.06
2017-09-07T02:04:38.117Z,14.00
2017-09-07T02:05:38.095Z,14.06
2017-09-07T02:06:38.400Z,14.06
2017-09-07T02:07:38.073Z,13.99
2017-09-07T02:08:38.073Z,14.04
2017-09-07T02:09:38.051Z,14.06
2017-09-07T02:10:38.050Z,14.04
2017-09-07T02:11:38.043Z,14.00
2017-09-07T02:12:38.403Z,14.10
2017-09-07T02:13:38.007Z,14.09
2017-09-07T02:14:38.006Z,14.04
2017-09-07T02:15:37.987Z,14.17
2017-09-07T02:16:37.989Z,14.15
2017-09-07T02:17:37.975Z,14.14
2017-09-07T02:18:38.232Z,14.15
2017-09-07T02:19:37.946Z,14.20
2017-09-07T02:20:37.929Z,14.14
2017-09-07T02:21:37.922Z,14.10
2017-09-07T02:22:37.917Z,14.14
2017-09-07T02:23:37.907Z,14.06
2017-09-07T02:24:38.323Z,14.14
2017-09-07T02:25:37.893Z,14.14
2017-09-07T02:26:37.865Z,14.04
2017-09-07T02:27:37.860Z,14.06
2017-09-07T02:28:37.847Z,14.02
2017-09-07T02:29:37.840Z,14.10
2017-09-07T02:30:37.867Z,14.09
2017-09-07T02:31:38.260Z,14.00
2017-09-07T02:32:37.815Z,14.07
2017-09-07T02:33:37.808Z,14.03
2017-09-07T02:34:37.795Z,14.00
2017-09-07T02:35:37.762Z,14.03
2017-09-07T02:36:37.770Z,14.02
2017-09-07T02:37:38.186Z,13.92
2017-09-07T02:38:37.733Z,13.95
2017-09-07T02:39:37.733Z,13.91
2017-09-07T02:40:37.723Z,13.95
2017-09-07T02:41:37.700Z,13.97
2017-09-07T02:42:37.687Z,13.91
2017-09-07T02:43:37.719Z,14.00
2017-09-07T02:44:37.660Z,13.92
2017-09-07T02:45:37.677Z,13.96
2017-09-07T02:46:37.656Z,13.99
2017-09-07T02:47:37.675Z,13.95
2017-09-07T02:48:38.046Z,13.96
2017-09-07T02:49:37.622Z,13.95
2017-09-07T02:50:37.625Z,13.96
2017-09-07T02:51:37.602Z,13.89
2017-09-07T02:52:37.573Z,13.99
2017-09-07T02:53:37.572Z,13.97
2017-09-07T02:54:37.587Z,13.92
2017-09-07T02:55:37.550Z,13.96
2017-09-07T02:56:37.545Z,13.97
2017-09-07T02:57:37.542Z,13.99
2017-09-07T02:58:37.552Z,13.99
2017-09-07T02:59:37.500Z,13.96
2017-09-07T03:00:37.500Z,13.95
2017-09-07T03:01:37.478Z,13.95
2017-09-07T03:02:37.476Z,13.95
2017-09-07T03:03:37.756Z,14.02
2017-09-07T03:04:37.448Z,14.00
2017-09-07T03:05:37.440Z,14.09
2017-09-07T03:06:37.426Z,14.02
2017-09-07T03:07:37.424Z,14.04
2017-09-07T03:08:37.400Z,14.09
2017-09-07T03:09:37.745Z,14.07
2017-09-07T03:10:37.379Z,14.10
2017-09-07T03:11:37.385Z,14.07
2017-09-07T03:12:37.359Z,14.06
2017-09-07T03:13:37.347Z,14.14
2017-09-07T03:14:37.342Z,14.04
2017-09-07T03:15:37.351Z,14.10
2017-09-07T03:16:37.325Z,14.07
2017-09-07T03:17:37.313Z,14.07
2017-09-07T03:18:37.302Z,14.17
2017-09-07T03:19:37.300Z,14.09
2017-09-07T03:20:37.282Z,14.07
2017-09-07T03:21:37.272Z,14.14
2017-09-07T03:22:37.283Z,14.12
2017-09-07T03:23:37.245Z,14.07
2017-09-07T03:24:37.703Z,14.14
2017-09-07T03:25:37.229Z,14.12
2017-09-07T03:26:37.214Z,14.20
2017-09-07T03:27:37.200Z,14.12
2017-09-07T03:28:37.180Z,14.10
2017-09-07T03:29:37.170Z,14.12
2017-09-07T03:30:37.615Z,14.14
2017-09-07T03:31:37.148Z,14.15
2017-09-07T03:32:37.145Z,14.04
2017-09-07T03:33:37.139Z,14.10
2017-09-07T03:34:37.120Z,14.10
2017-09-07T03:35:37.103Z,14.10
2017-09-07T03:36:37.158Z,14.14
2017-09-07T03:37:37.096Z,14.12
2017-09-07T03:38:37.096Z,14.04
2017-09-07T03:39:37.062Z,14.06
2017-09-07T03:40:37.048Z,14.10
2017-09-07T03:41:37.409Z,14.07
2017-09-07T03:42:37.025Z,14.07
2017-09-07T03:43:37.032Z,14.17
2017-09-07T03:44:37.003Z,14.17
2017-09-07T03:45:37.003Z,14.12
2017-09-07T03:46:36.995Z,14.10
2017-09-07T03:47:37.337Z,14.15
2017-09-07T03:48:36.964Z,14.14
2017-09-07T03:49:36.965Z,14.18
2017-09-07T03:50:36.940Z,14.20
2017-09-07T03:51:36.926Z,14.18
2017-09-07T03:52:36.931Z,14.17
2017-09-07T03:53:37.332Z,14.17
2017-09-07T03:54:36.910Z,14.14
2017-09-07T03:55:36.883Z,14.15
2017-09-07T03:56:36.885Z,14.07
2017-09-07T03:57:36.871Z,14.12
2017-09-07T03:58:36.861Z,14.12
2017-09-07T03:59:37.276Z,14.20
2017-09-07T04:00:36.833Z,14.15
2017-09-07T04:01:36.838Z,14.18
2017-09-07T04:02:36.818Z,14.18
2017-09-07T04:03:36.811Z,14.20
2017-09-07T04:04:36.784Z,14.24
2017-09-07T04:05:37.085Z,14.15
2017-09-07T04:06:36.779Z,14.15
2017-09-07T04:07:36.749Z,14.14
2017-09-07T04:08:36.742Z,14.14
2017-09-07T04:09:36.734Z,14.12
2017-09-07T04:10:36.734Z,14.07
2017-09-07T04:11:37.023Z,14.07
2017-09-07T04:12:36.710Z,13.99
2017-09-07T04:13:36.684Z,14.06
2017-09-07T04:14:36.675Z,14.03
2017-09-07T04:15:36.675Z,14.04
2017-09-07T04:16:36.654Z,14.00
2017-09-07T04:17:37.020Z,14.09
2017-09-07T04:18:36.634Z,14.07
2017-09-07T04:19:36.629Z,14.03
2017-09-07T04:20:36.623Z,14.07
2017-09-07T04:21:36.607Z,13.99
2017-09-07T04:22:36.601Z,14.03
2017-09-07T04:23:36.809Z,14.09
2017-09-07T04:24:36.577Z,14.07
2017-09-07T04:25:36.570Z,14.12
2017-09-07T04:26:36.559Z,14.04
2017-09-07T04:27:36.546Z,14.10
2017-09-07T04:28:36.536Z,14.02
2017-09-07T04:29:36.830Z,14.02
2017-09-07T04:30:36.512Z,14.06
2017-09-07T04:31:36.504Z,14.07
2017-09-07T04:32:36.487Z,14.10
2017-09-07T04:33:36.468Z,14.17
2017-09-07T04:34:36.451Z,14.10
2017-09-07T04:35:36.759Z,14.07
2017-09-07T04:36:36.435Z,14.02
2017-09-07T04:37:36.425Z,14.07
2017-09-07T04:38:36.409Z,14.10
2017-09-07T04:39:36.409Z,14.07
2017-09-07T04:40:36.398Z,14.10
2017-09-07T04:41:36.682Z,14.04
2017-09-07T04:42:36.712Z,14.03
2017-09-07T04:43:36.364Z,14.12
2017-09-07T04:44:36.342Z,14.15
2017-09-07T04:45:36.351Z,14.14
2017-09-07T04:46:36.334Z,14.04
2017-09-07T04:47:36.627Z,14.09
2017-09-07T04:48:36.307Z,14.04
2017-09-07T04:49:36.302Z,14.03
2017-09-07T04:50:36.293Z,14.07
2017-09-07T04:51:36.266Z,14.14
2017-09-07T04:52:36.258Z,14.15
2017-09-07T04:53:36.682Z,14.09
2017-09-07T04:54:36.244Z,14.14
2017-09-07T04:55:36.230Z,14.12
2017-09-07T04:56:36.225Z,14.09
2017-09-07T04:57:36.215Z,14.12
2017-09-07T04:58:36.203Z,14.09
2017-09-07T04:59:36.539Z,14.17
2017-09-07T05:00:36.168Z,14.15
2017-09-07T05:01:36.166Z,14.03
2017-09-07T05:02:36.165Z,14.07
2017-09-07T05:03:36.158Z,14.12
2017-09-07T05:04:36.131Z,14.18
2017-09-07T05:05:36.566Z,14.18
2017-09-07T05:06:36.119Z,14.15
2017-09-07T05:07:36.104Z,14.21
2017-09-07T05:08:36.099Z,14.15
2017-09-07T05:09:36.071Z,14.15
2017-09-07T05:10:36.078Z,14.09
2017-09-07T05:11:36.352Z,14.12
2017-09-07T05:12:36.041Z,14.12
2017-09-07T05:13:36.040Z,14.12
2017-09-07T05:14:36.019Z,14.15
2017-09-07T05:15:36.004Z,14.12
2017-09-07T05:16:36.004Z,14.17
2017-09-07T05:17:36.316Z,14.07
2017-09-07T05:18:35.974Z,14.10
2017-09-07T05:19:35.973Z,14.06
2017-09-07T05:20:35.947Z,14.09
2017-09-07T05:21:35.942Z,14.15
2017-09-07T05:22:35.927Z,14.07
2017-09-07T05:23:36.341Z,14.12
2017-09-07T05:24:35.916Z,14.14
2017-09-07T05:25:35.906Z,14.12
2017-09-07T05:26:35.900Z,14.07
2017-09-07T05:27:35.891Z,14.04
2017-09-07T05:28:35.875Z,14.03
2017-09-07T05:29:35.884Z,14.09
2017-09-07T05:30:35.846Z,14.12
2017-09-07T05:31:35.828Z,14.14
2017-09-07T05:32:36.235Z,14.03
2017-09-07T05:33:35.830Z,14.09
2017-09-07T05:34:35.800Z,14.04
2017-09-07T05:35:35.792Z,14.04
2017-09-07T05:36:35.774Z,14.09
2017-09-07T05:37:35.766Z,14.02
2017-09-07T05:38:36.083Z,14.03
2017-09-07T05:39:35.755Z,14.10
2017-09-07T05:40:35.742Z,14.07
2017-09-07T05:41:35.739Z,14.09
2017-09-07T05:42:35.725Z,14.04
2017-09-07T05:43:35.707Z,14.10
2017-09-07T05:44:36.048Z,14.14
2017-09-07T05:45:35.674Z,14.14
2017-09-07T05:46:35.678Z,14.15
2017-09-07T05:47:35.658Z,14.15
2017-09-07T05:48:35.656Z,14.17
2017-09-07T05:49:35.651Z,14.12
2017-09-07T05:50:35.919Z,14.17
2017-09-07T05:51:35.614Z,14.15
2017-09-07T05:52:35.612Z,14.12
2017-09-07T05:53:35.586Z,14.15
2017-09-07T05:54:35.584Z,14.15
2017-09-07T05:55:35.565Z,14.14
2017-09-07T05:56:35.883Z,14.15
2017-09-07T05:57:35.543Z,14.12
2017-09-07T05:58:35.532Z,14.17
2017-09-07T05:59:35.537Z,14.15
2017-09-07T06:00:35.528Z,14.12
2017-09-07T06:01:35.510Z,14.12
2017-09-07T06:02:35.777Z,14.12
2017-09-07T06:03:35.495Z,14.15
2017-09-07T06:04:35.484Z,14.15
2017-09-07T06:05:35.458Z,14.17
2017-09-07T06:06:35.467Z,14.21
2017-09-07T06:07:35.458Z,14.18
2017-09-07T06:08:35.652Z,14.17
2017-09-07T06:09:35.416Z,14.17
2017-09-07T06:10:35.407Z,14.22
2017-09-07T06:11:35.396Z,14.33
2017-09-07T06:12:35.396Z,14.33
2017-09-07T06:13:35.384Z,14.35
2017-09-07T06:14:35.786Z,14.32
2017-09-07T06:15:35.369Z,14.37
2017-09-07T06:16:35.334Z,14.40
2017-09-07T06:17:35.345Z,14.39
2017-09-07T06:18:35.331Z,14.40
2017-09-07T06:19:35.308Z,14.36
2017-09-07T06:20:35.331Z,14.35
2017-09-07T06:21:35.301Z,14.42
2017-09-07T06:22:35.277Z,14.33
2017-09-07T06:23:35.276Z,14.37
2017-09-07T06:24:35.266Z,14.39
2017-09-07T06:25:35.555Z,14.36
2017-09-07T06:26:35.244Z,14.40
2017-09-07T06:27:35.233Z,14.46
2017-09-07T06:28:35.216Z,14.39
2017-09-07T06:29:35.212Z,14.37
2017-09-07T06:30:35.199Z,14.45
2017-09-07T06:31:35.589Z,14.43
2017-09-07T06:32:35.167Z,14.47
2017-09-07T06:33:35.182Z,14.50
2017-09-07T06:34:35.154Z,14.52
2017-09-07T06:35:35.139Z,14.50
2017-09-07T06:36:35.139Z,14.47
2017-09-07T06:37:35.139Z,14.51
2017-09-07T06:38:35.117Z,14.52
2017-09-07T06:39:35.088Z,14.54
2017-09-07T06:40:35.104Z,14.62
2017-09-07T06:41:35.439Z,14.50
2017-09-07T06:42:35.070Z,14.50
2017-09-07T06:43:35.060Z,14.51
2017-09-07T06:44:35.041Z,14.52
2017-09-07T06:45:35.028Z,14.62
2017-09-07T06:46:35.039Z,14.52
2017-09-07T06:47:35.408Z,14.51
2017-09-07T06:48:34.992Z,14.51
2017-09-07T06:49:34.983Z,14.50
2017-09-07T06:50:34.975Z,14.60
2017-09-07T06:51:34.976Z,14.62
2017-09-07T06:52:34.967Z,14.62
2017-09-07T06:53:35.248Z,14.70
2017-09-07T06:54:34.942Z,14.62
2017-09-07T06:55:34.921Z,14.65
2017-09-07T06:56:34.913Z,14.64
2017-09-07T06:57:34.905Z,14.60
2017-09-07T06:58:34.904Z,14.72
2017-09-07T06:59:34.918Z,14.72
2017-09-07T07:00:34.881Z,14.64
2017-09-07T07:01:34.869Z,14.73
2017-09-07T07:02:35.182Z,14.75
2017-09-07T07:03:34.844Z,14.78
2017-09-07T07:04:34.834Z,14.78
2017-09-07T07:05:34.828Z,14.81
2017-09-07T07:06:34.818Z,14.80
2017-09-07T07:07:34.798Z,14.78
2017-09-07T07:08:34.820Z,14.75
2017-09-07T07:09:34.792Z,14.75
2017-09-07T07:10:34.780Z,14.80
2017-09-07T07:11:34.764Z,14.78
2017-09-07T07:12:34.757Z,14.80
2017-09-07T07:13:34.775Z,14.84
2017-09-07T07:14:34.727Z,14.83
2017-09-07T07:15:34.728Z,14.89
2017-09-07T07:16:34.707Z,14.81
2017-09-07T07:17:34.689Z,14.84
2017-09-07T07:18:35.143Z,14.84
2017-09-07T07:19:34.689Z,14.81
2017-09-07T07:20:34.659Z,14.89
2017-09-07T07:21:34.660Z,14.91
2017-09-07T07:22:34.642Z,14.89
2017-09-07T07:23:34.633Z,14.96
2017-09-07T07:24:34.988Z,14.84
2017-09-07T07:25:34.608Z,14.83
2017-09-07T07:26:34.607Z,14.83
2017-09-07T07:27:34.598Z,14.81
2017-09-07T07:28:34.574Z,14.96
2017-09-07T07:29:34.572Z,14.96
2017-09-07T07:30:34.585Z,15.06
2017-09-07T07:31:34.561Z,14.95
2017-09-07T07:32:34.539Z,14.99
2017-09-07T07:33:34.544Z,14.99
2017-09-07T07:34:34.525Z,15.10
2017-09-07T07:35:34.546Z,15.13
2017-09-07T07:36:34.500Z,15.13
2017-09-07T07:37:34.486Z,15.13
2017-09-07T07:38:34.486Z,15.14
2017-09-07T07:39:34.477Z,15.21
2017-09-07T07:40:34.495Z,15.10
2017-09-07T07:41:34.452Z,15.17
2017-09-07T07:42:34.439Z,15.21
2017-09-07T07:43:34.423Z,15.23
2017-09-07T07:44:34.425Z,15.23
2017-09-07T07:45:34.438Z,15.19
2017-09-07T07:46:34.390Z,15.28
2017-09-07T07:47:34.399Z,15.23
2017-09-07T07:48:34.376Z,15.21
2017-09-07T07:49:34.359Z,15.21
2017-09-07T07:50:34.778Z,15.19
2017-09-07T07:51:34.743Z,15.17
2017-09-07T07:52:35.103Z,15.25
2017-09-07T07:53:34.504Z,15.13
2017-09-07T07:54:35.005Z,15.19
2017-09-07T07:55:34.302Z,15.16
2017-09-07T07:56:37.501Z,15.20
2017-09-07T07:57:34.286Z,15.16
2017-09-07T07:58:35.080Z,15.16
2017-09-07T07:59:34.261Z,15.14
2017-09-07T08:00:34.260Z,15.14
2017-09-07T08:01:34.251Z,15.19
2017-09-07T08:02:34.541Z,15.19
2017-09-07T08:03:34.224Z,15.19
2017-09-07T08:04:34.230Z,15.28
2017-09-07T08:05:34.221Z,15.23
2017-09-07T08:06:34.196Z,15.39
2017-09-07T08:07:34.199Z,15.31
2017-09-07T08:08:34.604Z,15.39
2017-09-07T08:09:34.174Z,15.39
2017-09-07T08:10:34.144Z,15.32
2017-09-07T08:11:34.161Z,15.38
2017-09-07T08:12:34.133Z,15.36
2017-09-07T08:13:34.120Z,15.38
2017-09-07T08:14:34.478Z,15.46
2017-09-07T08:15:34.098Z,15.47
2017-09-07T08:16:34.100Z,15.43
2017-09-07T08:17:34.078Z,15.51
2017-09-07T08:18:34.065Z,15.56
2017-09-07T08:19:34.070Z,15.60
2017-09-07T08:20:34.264Z,15.60
2017-09-07T08:21:34.124Z,15.59
2017-09-07T08:22:34.038Z,15.62
2017-09-07T08:23:34.050Z,15.62
2017-09-07T08:24:34.020Z,15.64
2017-09-07T08:25:34.001Z,15.67
2017-09-07T08:26:34.327Z,15.65
2017-09-07T08:27:33.977Z,15.62
2017-09-07T08:28:33.970Z,15.62
2017-09-07T08:29:33.970Z,15.64
2017-09-07T08:30:33.947Z,15.62
2017-09-07T08:31:33.960Z,15.64
2017-09-07T08:32:34.237Z,15.54
2017-09-07T08:33:33.938Z,15.60
2017-09-07T08:34:33.914Z,15.64
2017-09-07T08:35:33.904Z,15.64
2017-09-07T08:36:33.902Z,15.60
2017-09-07T08:37:33.902Z,15.54
2017-09-07T08:38:34.321Z,15.62
2017-09-07T08:39:33.868Z,15.60
2017-09-07T08:40:33.864Z,15.62
2017-09-07T08:41:33.849Z,15.65
2017-09-07T08:42:33.831Z,15.65
2017-09-07T08:43:33.830Z,15.64
2017-09-07T08:44:34.146Z,15.57
2017-09-07T08:45:33.800Z,15.65
2017-09-07T08:46:33.797Z,15.64
2017-09-07T08:47:33.799Z,15.68
2017-09-07T08:48:33.780Z,15.65
2017-09-07T08:49:33.905Z,15.62
2017-09-07T08:50:33.774Z,15.65
2017-09-07T08:51:33.743Z,15.59
2017-09-07T08:52:33.738Z,15.64
2017-09-07T08:53:34.401Z,15.65
2017-09-07T08:54:34.706Z,15.64
2017-09-07T08:55:34.222Z,15.68
2017-09-07T08:56:33.698Z,15.65
2017-09-07T08:57:33.680Z,15.69
2017-09-07T08:58:33.678Z,15.78
2017-09-07T08:59:33.664Z,15.69
2017-09-07T09:00:33.711Z,15.78
2017-09-07T09:01:33.642Z,15.69
2017-09-07T09:02:33.642Z,15.67
2017-09-07T09:03:33.628Z,15.74
2017-09-07T09:04:33.607Z,15.72
2017-09-07T09:05:34.001Z,15.64
2017-09-07T09:06:33.642Z,15.78
2017-09-07T09:07:33.584Z,15.74
2017-09-07T09:08:33.584Z,15.74
2017-09-07T09:09:33.564Z,15.78
2017-09-07T09:10:33.574Z,15.83
2017-09-07T09:11:33.854Z,15.74
2017-09-07T09:12:33.556Z,15.82
2017-09-07T09:13:33.533Z,15.84
2017-09-07T09:14:33.528Z,15.83
2017-09-07T09:15:33.510Z,15.90
2017-09-07T09:16:33.514Z,15.84
2017-09-07T09:17:33.831Z,15.89
2017-09-07T09:18:33.471Z,15.97
2017-09-07T09:19:33.476Z,16.01
2017-09-07T09:20:33.452Z,15.94
2017-09-07T09:21:33.601Z,16.04
2017-09-07T09:22:33.444Z,16.11
2017-09-07T09:23:40.527Z,16.14
2017-09-07T09:24:33.422Z,16.12
2017-09-07T09:25:33.422Z,16.17
2017-09-07T09:26:33.801Z,16.17
2017-09-07T09:27:33.388Z,16.28
2017-09-07T09:28:33.426Z,16.24
2017-09-07T09:29:33.626Z,16.21
2017-09-07T09:30:33.374Z,16.27
2017-09-07T09:31:33.348Z,16.23
2017-09-07T09:32:34.289Z,16.30
2017-09-07T09:33:33.356Z,16.25
2017-09-07T09:34:33.535Z,16.43
2017-09-07T09:35:34.152Z,16.35
2017-09-07T09:36:33.322Z,16.38
2017-09-07T09:37:33.304Z,16.33
2017-09-07T09:38:33.635Z,16.25
2017-09-07T09:39:33.286Z,16.21
2017-09-07T09:40:33.288Z,16.24
2017-09-07T09:41:33.267Z,16.30
2017-09-07T09:42:33.246Z,16.25
2017-09-07T09:43:33.240Z,16.27
2017-09-07T09:44:33.252Z,16.27
2017-09-07T09:45:33.228Z,16.41
2017-09-07T09:46:34.602Z,16.27
2017-09-07T09:47:33.210Z,16.31
2017-09-07T09:48:33.618Z,16.27
2017-09-07T09:49:36.656Z,16.33
2017-09-07T09:50:33.181Z,16.43
2017-09-07T09:51:33.170Z,16.34
2017-09-07T09:52:33.490Z,16.42
2017-09-07T09:53:33.253Z,16.39
2017-09-07T09:54:33.611Z,16.35
2017-09-07T09:55:33.138Z,16.38
2017-09-07T09:56:33.149Z,16.41
2017-09-07T09:57:33.103Z,16.38
2017-09-07T09:58:33.104Z,16.28
2017-09-07T09:59:33.094Z,16.33
2017-09-07T10:00:33.457Z,16.33
2017-09-07T10:01:33.349Z,16.31
2017-09-07T10:02:33.066Z,16.34
2017-09-07T10:03:33.060Z,16.42
2017-09-07T10:04:33.036Z,16.42
2017-09-07T10:05:33.038Z,16.41
2017-09-07T10:06:33.595Z,16.42
2017-09-07T10:07:33.020Z,16.39
2017-09-07T10:08:32.996Z,16.48
2017-09-07T10:09:32.993Z,16.42
2017-09-07T10:10:32.991Z,16.50
2017-09-07T10:11:32.973Z,16.60
2017-09-07T10:12:33.417Z,16.53
2017-09-07T10:13:32.970Z,16.63
2017-09-07T10:14:32.960Z,16.53
2017-09-07T10:15:32.950Z,16.64
2017-09-07T10:16:32.934Z,16.66
2017-09-07T10:17:32.918Z,16.67
2017-09-07T10:18:32.944Z,16.71
2017-09-07T10:19:33.873Z,16.70
2017-09-07T10:20:32.893Z,16.75
2017-09-07T10:21:32.882Z,16.83
2017-09-07T10:22:33.156Z,16.85
2017-09-07T10:23:32.880Z,16.89
2017-09-07T10:24:32.865Z,16.86
2017-09-07T10:25:33.079Z,16.86
2017-09-07T10:26:32.838Z,16.82
2017-09-07T10:27:32.831Z,16.97
2017-09-07T10:28:32.813Z,16.94
2017-09-07T10:29:32.815Z,16.97
2017-09-07T10:30:32.922Z,16.97
2017-09-07T10:31:32.822Z,16.93
2017-09-07T10:32:32.781Z,16.91
2017-09-07T10:33:32.769Z,16.96
2017-09-07T10:34:32.771Z,16.98
2017-09-07T10:35:32.773Z,17.12
2017-09-07T10:36:33.072Z,17.08
2017-09-07T10:37:32.775Z,17.14
2017-09-07T10:38:33.434Z,17.15
2017-09-07T10:39:32.729Z,17.21
2017-09-07T10:40:32.760Z,17.15
2017-09-07T10:41:33.009Z,17.14
2017-09-07T10:42:33.121Z,17.14
2017-09-07T10:43:32.707Z,17.18
2017-09-07T10:44:32.675Z,17.21
2017-09-07T10:45:32.675Z,17.22
2017-09-07T10:46:32.658Z,17.31
2017-09-07T10:47:32.663Z,17.31
2017-09-07T10:48:32.981Z,17.34
2017-09-07T10:49:32.649Z,17.43
2017-09-07T10:50:32.633Z,17.41
2017-09-07T10:51:32.630Z,17.48
2017-09-07T10:52:32.606Z,17.41
2017-09-07T10:53:32.609Z,17.46
2017-09-07T10:54:32.870Z,17.37
2017-09-07T10:55:32.680Z,17.28
2017-09-07T10:56:32.572Z,17.38
2017-09-07T10:57:32.566Z,17.33
2017-09-07T10:58:32.573Z,17.38
2017-09-07T10:59:32.562Z,17.43
2017-09-07T11:00:32.883Z,17.49
2017-09-07T11:01:32.546Z,17.44
2017-09-07T11:02:32.528Z,17.46
2017-09-07T11:03:32.514Z,17.46
2017-09-07T11:04:32.518Z,17.40
2017-09-07T11:05:32.513Z,17.38
2017-09-07T11:06:32.535Z,17.40
2017-09-07T11:07:32.492Z,17.36
2017-09-07T11:08:32.494Z,17.36
2017-09-07T11:09:32.466Z,17.51
2017-09-07T11:10:32.463Z,17.51
2017-09-07T11:11:32.748Z,17.49
2017-09-07T11:12:32.449Z,17.46
2017-09-07T11:13:32.454Z,17.49
2017-09-07T11:14:32.428Z,17.43
2017-09-07T11:15:32.409Z,17.43
2017-09-07T11:16:32.412Z,17.43
2017-09-07T11:17:32.819Z,17.30
2017-09-07T11:18:32.391Z,17.34
2017-09-07T11:19:32.376Z,17.34
2017-09-07T11:20:32.481Z,17.37
2017-09-07T11:21:32.374Z,17.43
2017-09-07T11:22:32.351Z,17.49
2017-09-07T11:23:32.789Z,17.38
2017-09-07T11:24:32.354Z,17.48
2017-09-07T11:25:32.347Z,17.37
2017-09-07T11:26:32.322Z,17.44
2017-09-07T11:27:32.322Z,17.38
2017-09-07T11:28:32.301Z,17.34
2017-09-07T11:29:32.609Z,17.52
2017-09-07T11:30:32.295Z,17.48
2017-09-07T11:31:32.291Z,17.43
2017-09-07T11:32:32.273Z,17.59
2017-09-07T11:33:32.278Z,17.58
2017-09-07T11:34:32.261Z,17.59
2017-09-07T11:35:32.671Z,17.54
2017-09-07T11:36:32.239Z,17.49
2017-09-07T11:37:32.225Z,17.58
2017-09-07T11:38:32.216Z,17.46
2017-09-07T11:39:32.218Z,17.46
2017-09-07T11:40:32.218Z,17.52
2017-09-07T11:41:32.233Z,17.59
2017-09-07T11:42:32.187Z,17.55
2017-09-07T11:43:32.188Z,17.56
2017-09-07T11:44:32.171Z,17.59
2017-09-07T11:45:32.184Z,17.75
2017-09-07T11:46:32.153Z,17.55
2017-09-07T11:47:32.156Z,17.52
2017-09-07T11:48:32.132Z,17.49
2017-09-07T11:49:32.138Z,17.55
2017-09-07T11:50:32.157Z,17.43
2017-09-07T11:51:32.120Z,17.52
2017-09-07T11:52:32.110Z,17.38
2017-09-07T11:53:32.109Z,17.38
2017-09-07T11:54:32.082Z,17.38
2017-09-07T11:55:32.133Z,17.44
2017-09-07T11:56:32.076Z,17.51
2017-09-07T11:57:32.083Z,17.52
2017-09-07T11:58:32.058Z,17.49
2017-09-07T11:59:32.062Z,17.49
2017-09-07T12:00:32.356Z,17.46
2017-09-07T12:01:32.042Z,17.46
2017-09-07T12:02:32.017Z,17.51
2017-09-07T12:03:32.020Z,17.41
2017-09-07T12:04:32.019Z,17.48
2017-09-07T12:05:31.992Z,17.48
2017-09-07T12:06:32.019Z,17.44
2017-09-07T12:07:31.970Z,17.38
2017-09-07T12:08:31.987Z,17.48
2017-09-07T12:09:31.968Z,17.48
2017-09-07T12:10:31.951Z,17.46
2017-09-07T12:11:32.250Z,17.48
2017-09-07T12:12:31.933Z,17.46
2017-09-07T12:13:31.921Z,17.48
2017-09-07T12:14:31.925Z,17.37
2017-09-07T12:15:31.911Z,17.48
2017-09-07T12:16:31.900Z,17.48
2017-09-07T12:17:32.241Z,17.37
2017-09-07T12:18:31.890Z,17.38
2017-09-07T12:19:31.873Z,17.37
2017-09-07T12:20:31.874Z,17.38
2017-09-07T12:21:31.870Z,17.36
2017-09-07T12:22:31.853Z,17.38
2017-09-07T12:23:32.121Z,17.38
2017-09-07T12:24:31.830Z,17.34
2017-09-07T12:25:31.828Z,17.37
2017-09-07T12:26:31.816Z,17.52
2017-09-07T12:27:31.809Z,17.41
2017-09-07T12:28:31.808Z,17.41
2017-09-07T12:29:32.211Z,17.56
2017-09-07T12:30:31.799Z,17.51
2017-09-07T12:31:52.772Z,17.52
2017-09-07T12:32:31.765Z,17.48
2017-09-07T12:33:31.761Z,17.54
2017-09-07T12:34:31.753Z,17.58
2017-09-07T12:35:32.075Z,17.70
2017-09-07T12:36:31.744Z,17.72
2017-09-07T12:37:31.740Z,17.77
2017-09-07T12:38:31.723Z,17.81
2017-09-07T12:39:31.717Z,17.87
2017-09-07T12:40:31.903Z,17.84
2017-09-07T12:41:31.730Z,17.78
2017-09-07T12:42:31.686Z,17.86
2017-09-07T12:43:31.680Z,17.92
2017-09-07T12:44:31.661Z,17.86
2017-09-07T12:45:31.668Z,17.86
2017-09-07T12:46:31.687Z,17.89
2017-09-07T12:47:31.638Z,17.95
2017-09-07T12:48:31.628Z,17.87
2017-09-07T12:49:31.642Z,17.93
2017-09-07T12:50:31.617Z,18.10
2017-09-07T12:51:32.039Z,18.18
2017-09-07T12:52:31.610Z,18.18